createdAt,value
2023-03-13T00:03:06.300Z,100.00
2023-03-13T00:09:24.539Z,100.00
2023-03-13T00:15:08.316Z,100.00
2023-03-13T00:25:28.660Z,100.00
2023-03-13T00:27:55.459Z,100.00
2023-03-13T00:30:27.617Z,100.00
2023-03-13T00:33:25.992Z,100.00
2023-03-13T00:43:34.695Z,100.00
2023-03-13T00:46:02.102Z,100.00
2023-03-13T00:48:31.262Z,100.00
2023-03-13T00:56:03.767Z,100.00
2023-03-13T01:09:16.709Z,100.00
2023-03-13T01:11:44.744Z,100.00
2023-03-13T01:14:19.907Z,100.00
2023-03-13T01:16:46.981Z,100.00
2023-03-13T01:19:16.134Z,100.00
2023-03-13T01:21:44.666Z,100.00
2023-03-13T01:24:11.395Z,100.00
2023-03-13T01:26:37.999Z,100.00
2023-03-13T01:29:04.596Z,100.00
2023-03-13T01:31:34.031Z,100.00
2023-03-13T01:34:03.776Z,100.00
2023-03-13T01:36:30.894Z,100.00
2023-03-13T01:38:59.926Z,100.00
2023-03-13T01:41:28.529Z,100.00
2023-03-13T01:43:57.829Z,100.00
2023-03-13T01:46:27.672Z,100.00
2023-03-13T01:49:05.958Z,100.00
2023-03-13T01:51:40.177Z,100.00
2023-03-13T01:54:18.045Z,100.00
2023-03-13T01:56:54.165Z,100.00
2023-03-13T01:59:26.888Z,100.00
2023-03-13T02:01:57.392Z,100.00
2023-03-13T02:04:26.584Z,100.00
2023-03-13T02:06:58.295Z,100.00
2023-03-13T02:09:28.132Z,100.00
2023-03-13T02:12:04.631Z,100.00
2023-03-13T02:14:35.751Z,100.00
2023-03-13T02:17:03.513Z,100.00
2023-03-13T02:19:49.239Z,100.00
2023-03-13T02:22:27.820Z,100.00
2023-03-13T02:25:06.456Z,100.00
2023-03-13T02:27:33.013Z,100.00
2023-03-13T02:29:59.821Z,100.00
2023-03-13T02:32:29.583Z,100.00
2023-03-13T02:35:06.457Z,100.00
2023-03-13T02:37:33.536Z,100.00
2023-03-13T02:40:04.147Z,100.00
2023-03-13T02:42:31.548Z,100.00
2023-03-13T02:44:58.037Z,100.00
2023-03-13T02:47:26.436Z,100.00
2023-03-13T02:49:52.980Z,100.00
2023-03-13T02:52:38.849Z,100.00
2023-03-13T02:55:10.037Z,100.00
2023-03-13T02:57:36.539Z,100.00
2023-03-13T03:00:06.937Z,100.00
2023-03-13T03:02:33.420Z,100.00
2023-03-13T03:04:59.925Z,100.00
2023-03-13T03:07:26.416Z,100.00
2023-03-13T03:09:52.945Z,100.00
2023-03-13T03:12:19.422Z,100.00
2023-03-13T03:14:46.038Z,100.00
2023-03-13T03:17:16.709Z,100.00
2023-03-13T03:19:43.230Z,100.00
2023-03-13T03:22:09.770Z,100.00
2023-03-13T03:24:36.345Z,100.00
2023-03-13T03:27:02.838Z,100.00
2023-03-13T03:29:29.374Z,100.00
2023-03-13T03:31:56.223Z,100.00
2023-03-13T03:34:23.337Z,100.00
2023-03-13T03:36:56.173Z,100.00
2023-03-13T03:39:23.003Z,100.00
2023-03-13T03:41:49.546Z,100.00
2023-03-13T03:44:16.117Z,100.00
2023-03-13T03:46:42.664Z,100.00
2023-03-13T03:49:09.190Z,100.00
2023-03-13T03:51:35.733Z,100.00
2023-03-13T03:54:02.224Z,100.00
2023-03-13T03:56:28.774Z,100.00
2023-03-13T03:58:55.276Z,100.00
2023-03-13T04:01:21.813Z,100.00
2023-03-13T04:03:48.952Z,100.00
2023-03-13T04:06:15.647Z,100.00
2023-03-13T04:08:42.166Z,100.00
2023-03-13T04:11:08.689Z,100.00
2023-03-13T04:13:35.150Z,100.00
2023-03-13T04:16:07.231Z,100.00
2023-03-13T04:18:33.877Z,100.00
2023-03-13T04:21:02.476Z,100.00
2023-03-13T04:23:29.239Z,100.00
2023-03-13T04:25:55.718Z,100.00
2023-03-13T04:28:22.315Z,100.00
2023-03-13T04:30:48.851Z,100.00
2023-03-13T04:33:15.341Z,100.00
2023-03-13T04:35:41.948Z,100.00
2023-03-13T04:38:08.574Z,100.00
2023-03-13T04:40:35.103Z,100.00
2023-03-13T04:43:01.635Z,100.00
2023-03-13T04:45:28.128Z,100.00
2023-03-13T04:47:54.691Z,100.00
2023-03-13T04:50:21.205Z,100.00
2023-03-13T04:52:49.594Z,100.00
2023-03-13T04:55:16.497Z,100.00
2023-03-13T04:57:43.102Z,100.00
2023-03-13T05:00:11.586Z,100.00
2023-03-13T05:02:38.159Z,100.00
2023-03-13T05:05:05.014Z,100.00
2023-03-13T05:07:31.669Z,100.00
2023-03-13T05:09:58.199Z,100.00
2023-03-13T05:12:24.697Z,100.00
2023-03-13T05:14:51.260Z,100.00
2023-03-13T05:17:17.733Z,100.00
2023-03-13T05:19:44.243Z,100.00
2023-03-13T05:22:10.784Z,100.00
2023-03-13T05:24:38.063Z,100.00
2023-03-13T05:27:05.198Z,100.00
2023-03-13T05:29:31.815Z,100.00
2023-03-13T05:31:58.321Z,100.00
2023-03-13T05:34:24.900Z,100.00
2023-03-13T05:36:51.396Z,100.00
2023-03-13T05:39:17.994Z,100.00
2023-03-13T05:41:44.479Z,100.00
2023-03-13T05:44:11.212Z,100.00
2023-03-13T05:46:37.732Z,100.00
2023-03-13T05:49:04.289Z,100.00
2023-03-13T05:51:30.814Z,100.00
2023-03-13T05:53:57.287Z,100.00
2023-03-13T05:56:23.846Z,100.00
2023-03-13T05:58:50.367Z,100.00
2023-03-13T06:01:16.896Z,100.00
2023-03-13T06:03:43.578Z,100.00
2023-03-13T06:06:10.152Z,100.00
2023-03-13T06:08:36.668Z,100.00
2023-03-13T06:11:03.662Z,100.00
2023-03-13T06:13:30.189Z,100.00
2023-03-13T06:15:58.298Z,100.00
2023-03-13T06:18:25.850Z,100.00
2023-03-13T06:20:58.563Z,100.00
2023-03-13T06:23:25.436Z,100.00
2023-03-13T06:25:51.960Z,100.00
2023-03-13T06:28:18.477Z,100.00
2023-03-13T06:30:47.995Z,100.00
2023-03-13T06:33:15.021Z,100.00
2023-03-13T06:35:55.363Z,100.00
2023-03-13T06:38:22.767Z,100.00
2023-03-13T06:40:49.250Z,100.00
2023-03-13T06:43:15.710Z,100.00
2023-03-13T06:45:42.225Z,100.00
2023-03-13T06:48:08.710Z,100.00
2023-03-13T06:50:39.075Z,100.00
2023-03-13T06:53:05.942Z,100.00
2023-03-13T06:55:32.985Z,100.00
2023-03-13T06:57:59.556Z,100.00
2023-03-13T07:00:26.152Z,100.00
2023-03-13T07:02:52.680Z,100.00
2023-03-13T07:05:19.258Z,100.00
2023-03-13T07:07:45.742Z,100.00
2023-03-13T07:10:12.269Z,100.00
2023-03-13T07:12:38.798Z,100.00
2023-03-13T07:15:06.392Z,100.00
2023-03-13T07:17:32.996Z,100.00
2023-03-13T07:19:59.577Z,100.00
2023-03-13T07:22:26.115Z,100.00
2023-03-13T07:24:52.701Z,100.00
2023-03-13T07:27:21.205Z,100.00
2023-03-13T07:29:48.020Z,100.00
2023-03-13T07:32:14.821Z,100.00
2023-03-13T07:34:44.593Z,100.00
2023-03-13T07:37:15.948Z,100.00
2023-03-13T07:39:43.766Z,100.00
2023-03-13T07:42:11.956Z,100.00
2023-03-13T07:44:38.625Z,100.00
2023-03-13T07:47:05.517Z,100.00
2023-03-13T07:49:32.136Z,100.00
2023-03-13T07:51:58.636Z,100.00
2023-03-13T07:54:25.172Z,100.00
2023-03-13T07:56:51.697Z,100.00
2023-03-13T07:59:18.239Z,100.00
2023-03-13T08:01:44.761Z,100.00
2023-03-13T08:04:14.521Z,100.00
2023-03-13T08:06:42.031Z,100.00
2023-03-13T08:09:09.121Z,100.00
2023-03-13T08:11:36.345Z,100.00
2023-03-13T08:14:03.043Z,100.00
2023-03-13T08:16:34.134Z,100.00
2023-03-13T08:19:01.918Z,100.00
2023-03-13T08:21:31.161Z,100.00
2023-03-13T08:24:00.232Z,100.00
2023-03-13T08:26:30.867Z,100.00
2023-03-13T08:29:03.282Z,100.00
2023-03-13T08:31:32.850Z,100.00
2023-03-13T08:34:00.202Z,100.00
2023-03-13T08:36:37.600Z,100.00
2023-03-13T08:39:07.640Z,100.00
2023-03-13T08:41:36.655Z,100.00
2023-03-13T08:44:07.292Z,100.00
2023-03-13T08:46:36.010Z,100.00
2023-03-13T08:49:04.318Z,100.00
2023-03-13T08:51:34.146Z,100.00
2023-03-13T08:54:01.484Z,100.00
2023-03-13T08:56:32.978Z,100.00
2023-03-13T08:59:02.171Z,100.00
2023-03-13T09:01:31.623Z,100.00
2023-03-13T09:04:00.650Z,100.00
2023-03-13T09:06:29.500Z,100.00
2023-03-13T09:08:58.213Z,100.00
2023-03-13T09:11:25.240Z,100.00
2023-03-13T09:13:51.947Z,100.00
2023-03-13T09:16:23.730Z,100.00
2023-03-13T09:18:51.830Z,100.00
2023-03-13T09:21:26.733Z,100.00
2023-03-13T09:23:53.781Z,100.00
2023-03-13T09:26:23.037Z,100.00
2023-03-13T09:28:51.229Z,100.00
2023-03-13T09:31:23.798Z,100.00
2023-03-13T09:33:51.266Z,100.00
2023-03-13T09:36:21.778Z,100.00
2023-03-13T09:38:50.195Z,100.00
2023-03-13T09:41:18.117Z,100.00
2023-03-13T09:43:50.878Z,100.00
2023-03-13T09:46:33.918Z,100.00
2023-03-13T09:49:05.347Z,100.00
2023-03-13T09:51:42.850Z,100.00
2023-03-13T09:54:32.338Z,100.00
2023-03-13T09:57:20.266Z,100.00
2023-03-13T09:59:57.572Z,100.00
2023-03-13T10:02:30.347Z,100.00
2023-03-13T10:05:19.887Z,100.00
2023-03-13T10:07:46.604Z,100.00
2023-03-13T10:10:41.352Z,100.00
2023-03-13T10:13:43.376Z,100.00
2023-03-13T10:16:13.246Z,100.00
2023-03-13T10:18:44.320Z,95.81
2023-03-13T10:21:18.906Z,77.14
2023-03-13T10:24:07.657Z,79.99
2023-03-13T10:26:37.034Z,75.01
2023-03-13T10:29:23.545Z,71.82
2023-03-13T10:32:04.615Z,62.07
2023-03-13T10:34:58.946Z,57.77
2023-03-13T10:37:30.921Z,54.43
2023-03-13T10:40:28.255Z,57.12
2023-03-13T10:43:02.073Z,56.88
2023-03-13T10:45:34.586Z,51.92
2023-03-13T10:48:10.431Z,54.67
2023-03-13T10:50:37.287Z,47.92
2023-03-13T10:53:23.060Z,45.98
2023-03-13T10:55:53.344Z,47.86
2023-03-13T10:58:41.304Z,44.77
2023-03-13T11:01:22.927Z,45.06
2023-03-13T11:03:52.075Z,43.05
2023-03-13T11:06:28.904Z,46.61
2023-03-13T11:09:01.856Z,38.74
2023-03-13T11:11:30.979Z,36.87
2023-03-13T11:14:14.726Z,35.94
2023-03-13T11:16:55.281Z,36.34
2023-03-13T11:20:00.775Z,38.90
2023-03-13T11:22:39.428Z,40.44
2023-03-13T11:25:18.039Z,42.09
2023-03-13T11:28:14.607Z,42.49
2023-03-13T11:30:48.509Z,39.82
2023-03-13T11:33:17.239Z,35.49
2023-03-13T11:35:49.895Z,32.63
2023-03-13T11:38:37.365Z,32.29
2023-03-13T11:41:06.830Z,34.25
2023-03-13T11:43:48.272Z,36.98
2023-03-13T11:46:32.481Z,38.70
2023-03-13T11:49:20.899Z,38.19
2023-03-13T11:52:09.775Z,35.07
2023-03-13T11:54:59.123Z,31.86
2023-03-13T11:57:32.829Z,29.24
2023-03-13T12:00:14.295Z,27.48
2023-03-13T12:02:51.469Z,28.02
2023-03-13T12:05:20.989Z,25.50
2023-03-13T12:07:53.685Z,26.45
2023-03-13T12:10:46.146Z,23.38
2023-03-13T12:13:22.295Z,21.04
2023-03-13T12:15:54.271Z,23.84
2023-03-13T12:18:30.415Z,21.16
2023-03-13T12:21:06.500Z,20.41
2023-03-13T12:23:39.442Z,20.89
2023-03-13T12:26:27.893Z,21.61
2023-03-13T12:29:17.181Z,22.65
2023-03-13T12:32:09.236Z,19.86
2023-03-13T12:34:35.645Z,20.48
2023-03-13T12:37:19.994Z,19.71
2023-03-13T12:40:02.684Z,19.27
2023-03-13T12:42:35.131Z,20.63
2023-03-13T12:45:02.191Z,19.58
2023-03-13T12:48:03.579Z,22.31
2023-03-13T12:51:01.463Z,21.02
2023-03-13T12:53:37.207Z,19.24
2023-03-13T12:56:26.157Z,19.71
2023-03-13T12:59:10.911Z,20.72
2023-03-13T13:01:44.251Z,20.40
2023-03-13T13:04:23.816Z,20.77
2023-03-13T13:06:55.830Z,22.36
2023-03-13T13:09:28.591Z,24.43
2023-03-13T13:12:16.516Z,25.18
2023-03-13T13:14:49.081Z,28.72
2023-03-13T13:17:40.614Z,30.62
2023-03-13T13:20:30.507Z,31.31
2023-03-13T13:23:16.197Z,30.77
2023-03-13T13:25:42.720Z,30.85
2023-03-13T13:28:26.392Z,28.58
2023-03-13T13:30:56.139Z,28.06
2023-03-13T13:33:35.661Z,25.68
2023-03-13T13:36:23.398Z,25.53
2023-03-13T13:38:50.236Z,24.72
2023-03-13T13:41:16.748Z,24.37
2023-03-13T13:43:48.174Z,24.36
2023-03-13T13:46:33.150Z,23.68
2023-03-13T13:49:05.915Z,24.32
2023-03-13T13:51:39.463Z,25.26
2023-03-13T13:54:46.170Z,24.68
2023-03-13T13:57:16.239Z,24.04
2023-03-13T13:59:44.740Z,22.60
2023-03-13T14:02:21.209Z,23.29
2023-03-13T14:05:05.083Z,21.77
2023-03-13T14:07:44.660Z,22.13
2023-03-13T14:10:31.896Z,22.94
2023-03-13T14:13:01.021Z,24.18
2023-03-13T14:15:29.048Z,24.43
2023-03-13T14:18:08.956Z,24.80
2023-03-13T14:20:57.408Z,25.18
2023-03-13T14:23:42.728Z,27.78
2023-03-13T14:26:12.199Z,29.36
2023-03-13T14:28:40.402Z,31.04
2023-03-13T14:31:07.262Z,31.70
2023-03-13T14:33:34.780Z,31.40
2023-03-13T14:36:02.266Z,34.12
2023-03-13T14:38:38.527Z,34.44
2023-03-13T14:41:05.166Z,33.63
2023-03-13T14:43:42.461Z,35.69
2023-03-13T14:46:19.136Z,37.02
2023-03-13T14:48:45.913Z,37.29
2023-03-13T14:51:22.051Z,38.59
2023-03-13T14:54:04.880Z,37.95
2023-03-13T14:56:42.336Z,39.01
2023-03-13T14:59:15.151Z,39.54
2023-03-13T15:01:41.795Z,39.48
2023-03-13T15:04:08.461Z,40.00
2023-03-13T15:06:35.028Z,40.16
2023-03-13T15:09:14.317Z,40.44
2023-03-13T15:12:00.346Z,41.17
2023-03-13T15:14:36.766Z,42.09
2023-03-13T15:17:06.717Z,42.25
2023-03-13T15:19:33.194Z,42.51
2023-03-13T15:21:59.769Z,42.03
2023-03-13T15:24:26.280Z,42.41
2023-03-13T15:26:52.731Z,42.92
2023-03-13T15:29:20.160Z,42.81
2023-03-13T15:31:46.691Z,43.19
2023-03-13T15:34:14.907Z,43.21
2023-03-13T15:36:42.499Z,44.25
2023-03-13T15:39:15.870Z,44.85
2023-03-13T15:41:42.902Z,45.11
2023-03-13T15:44:09.418Z,45.21
2023-03-13T15:46:36.120Z,45.38
2023-03-13T15:49:02.895Z,46.12
2023-03-13T15:51:29.613Z,46.51
2023-03-13T15:53:56.433Z,46.59
2023-03-13T15:56:23.330Z,46.60
2023-03-13T15:58:51.177Z,47.07
2023-03-13T16:01:18.974Z,46.96
2023-03-13T16:03:45.675Z,47.27
2023-03-13T16:06:18.970Z,46.94
2023-03-13T16:08:45.798Z,47.30
2023-03-13T16:11:16.976Z,47.28
2023-03-13T16:13:43.781Z,46.31
2023-03-13T16:16:23.097Z,45.45
2023-03-13T16:18:50.912Z,46.33
2023-03-13T16:21:29.266Z,46.38
2023-03-13T16:23:55.935Z,46.79
2023-03-13T16:26:26.161Z,46.54
2023-03-13T16:28:53.871Z,46.77
2023-03-13T16:31:21.769Z,47.31
2023-03-13T16:33:52.275Z,47.79
2023-03-13T16:36:28.140Z,47.57
2023-03-13T16:38:54.814Z,47.73
2023-03-13T16:41:23.487Z,48.04
2023-03-13T16:43:50.920Z,48.97
2023-03-13T16:46:32.715Z,49.08
2023-03-13T16:48:59.816Z,49.68
2023-03-13T16:51:27.410Z,49.69
2023-03-13T16:53:56.225Z,49.91
2023-03-13T16:56:31.787Z,49.83
2023-03-13T16:58:58.548Z,50.26
2023-03-13T17:01:26.021Z,50.87
2023-03-13T17:03:53.052Z,50.67
2023-03-13T17:06:22.755Z,50.67
2023-03-13T17:08:49.854Z,51.00
2023-03-13T17:11:19.258Z,51.38
2023-03-13T17:13:48.484Z,51.56
2023-03-13T17:16:21.750Z,51.85
2023-03-13T17:18:51.632Z,51.87
2023-03-13T17:21:23.640Z,52.21
2023-03-13T17:23:50.600Z,52.24
2023-03-13T17:26:34.104Z,52.29
2023-03-13T17:29:01.226Z,52.38
2023-03-13T17:31:28.902Z,52.86
2023-03-13T17:33:55.509Z,53.45
2023-03-13T17:36:24.809Z,53.62
2023-03-13T17:38:53.895Z,54.08
2023-03-13T17:41:23.726Z,54.67
2023-03-13T17:43:50.256Z,55.51
2023-03-13T17:46:22.550Z,55.72
2023-03-13T17:48:52.145Z,56.01
2023-03-13T17:51:21.782Z,57.59
2023-03-13T17:53:49.123Z,57.66
2023-03-13T17:56:17.254Z,58.04
2023-03-13T17:58:43.932Z,58.66
2023-03-13T18:01:13.408Z,60.60
2023-03-13T18:03:40.443Z,60.94
2023-03-13T18:06:45.037Z,62.48
2023-03-13T18:09:20.725Z,63.12
2023-03-13T18:11:48.592Z,64.19
2023-03-13T18:14:15.443Z,63.91
2023-03-13T18:16:50.545Z,64.64
2023-03-13T18:19:23.029Z,64.63
2023-03-13T18:21:51.883Z,66.42
2023-03-13T18:24:18.744Z,66.49
2023-03-13T18:26:46.560Z,66.39
2023-03-13T18:29:16.448Z,66.10
2023-03-13T18:31:43.790Z,67.08
2023-03-13T18:34:11.675Z,66.66
2023-03-13T18:36:39.226Z,65.29
2023-03-13T18:39:10.735Z,64.43
2023-03-13T18:41:37.203Z,63.77
2023-03-13T18:44:03.802Z,62.79
2023-03-13T18:46:31.873Z,62.12
2023-03-13T18:48:59.074Z,62.48
2023-03-13T18:51:27.278Z,61.98
2023-03-13T18:53:55.189Z,62.54
2023-03-13T18:56:28.406Z,63.42
2023-03-13T18:58:55.956Z,63.96
2023-03-13T19:01:25.021Z,64.40
2023-03-13T19:03:52.343Z,64.20
2023-03-13T19:06:30.087Z,64.54
2023-03-13T19:08:59.176Z,64.36
2023-03-13T19:11:31.191Z,65.17
2023-03-13T19:13:58.097Z,65.64
2023-03-13T19:16:31.998Z,65.73
2023-03-13T19:18:58.764Z,65.92
2023-03-13T19:21:27.527Z,66.35
2023-03-13T19:23:54.927Z,66.20
2023-03-13T19:26:33.375Z,66.69
2023-03-13T19:28:59.924Z,66.97
2023-03-13T19:31:27.163Z,67.01
2023-03-13T19:33:54.392Z,67.89
2023-03-13T19:36:24.846Z,68.40
2023-03-13T19:38:51.392Z,68.43
2023-03-13T19:41:18.091Z,69.91
2023-03-13T19:43:45.558Z,72.62
2023-03-13T19:46:27.090Z,75.85
2023-03-13T19:48:56.066Z,77.82
2023-03-13T19:51:24.150Z,80.68
2023-03-13T19:53:51.079Z,81.93
2023-03-13T19:56:17.578Z,83.39
2023-03-13T19:58:45.862Z,84.96
2023-03-13T20:01:17.447Z,87.06
2023-03-13T20:03:45.874Z,88.78
2023-03-13T20:06:18.791Z,88.56
2023-03-13T20:08:46.405Z,90.30
2023-03-13T20:11:14.539Z,92.26
2023-03-13T20:13:42.146Z,89.01
2023-03-13T20:16:10.910Z,90.84
2023-03-13T20:18:38.611Z,89.53
2023-03-13T20:21:05.876Z,89.65
2023-03-13T20:23:32.980Z,89.36
2023-03-13T20:26:04.846Z,86.74
2023-03-13T20:28:31.392Z,87.19
2023-03-13T20:30:57.938Z,86.71
2023-03-13T20:33:24.676Z,88.07
2023-03-13T20:35:51.201Z,90.83
2023-03-13T20:38:17.745Z,89.58
2023-03-13T20:40:51.572Z,91.54
2023-03-13T20:43:18.090Z,95.18
2023-03-13T20:45:45.025Z,96.45
2023-03-13T20:48:11.950Z,97.23
2023-03-13T20:50:38.554Z,96.18
2023-03-13T20:53:05.160Z,100.00
2023-03-13T20:55:32.739Z,99.76
2023-03-13T20:57:59.912Z,100.00
2023-03-13T21:00:26.520Z,98.53
2023-03-13T21:02:54.306Z,97.69
2023-03-13T21:05:20.856Z,100.00
2023-03-13T21:07:47.933Z,97.77
2023-03-13T21:10:15.011Z,98.80
2023-03-13T21:12:41.566Z,100.00
2023-03-13T21:15:08.996Z,100.00
2023-03-13T21:17:36.565Z,99.77
2023-03-13T21:20:10.770Z,100.00
2023-03-13T21:22:42.047Z,100.00
2023-03-13T21:25:10.425Z,100.00
2023-03-13T21:27:37.438Z,100.00
2023-03-13T21:30:06.466Z,100.00
2023-03-13T21:32:36.924Z,100.00
2023-03-13T21:35:04.457Z,100.00
2023-03-13T21:37:31.544Z,100.00
2023-03-13T21:39:58.071Z,100.00
2023-03-13T21:42:24.653Z,100.00
2023-03-13T21:44:51.184Z,100.00
2023-03-13T21:47:24.123Z,100.00
2023-03-13T21:49:55.099Z,100.00
2023-03-13T21:52:23.050Z,100.00
2023-03-13T21:54:49.780Z,100.00
2023-03-13T21:57:16.406Z,100.00
2023-03-13T21:59:43.268Z,100.00
2023-03-13T22:02:13.810Z,100.00
2023-03-13T22:04:40.521Z,100.00
2023-03-13T22:07:07.402Z,100.00
2023-03-13T22:09:33.987Z,100.00
2023-03-13T22:12:00.455Z,100.00
2023-03-13T22:14:28.028Z,100.00
2023-03-13T22:16:54.932Z,100.00
2023-03-13T22:19:21.430Z,100.00
2023-03-13T22:21:47.968Z,100.00
2023-03-13T22:24:14.569Z,100.00
2023-03-13T22:26:41.151Z,100.00
2023-03-13T22:29:07.639Z,100.00
2023-03-13T22:31:34.149Z,100.00
2023-03-13T22:34:00.626Z,100.00
2023-03-13T22:36:27.107Z,100.00
2023-03-13T22:38:53.621Z,100.00
2023-03-13T22:41:20.429Z,100.00
2023-03-13T22:43:46.967Z,100.00
2023-03-13T22:46:14.042Z,100.00
2023-03-13T22:48:40.698Z,100.00
2023-03-13T22:51:09.746Z,100.00
2023-03-13T22:53:38.978Z,100.00
2023-03-13T22:56:06.887Z,100.00
2023-03-13T22:58:34.124Z,100.00
2023-03-13T23:01:00.725Z,100.00
2023-03-13T23:03:27.224Z,100.00
2023-03-13T23:05:53.723Z,100.00
2023-03-13T23:08:20.232Z,100.00
2023-03-13T23:10:47.880Z,100.00
2023-03-13T23:13:15.086Z,100.00
2023-03-13T23:15:57.416Z,100.00
2023-03-13T23:18:25.807Z,100.00
2023-03-13T23:20:52.799Z,100.00
2023-03-13T23:23:19.754Z,100.00
2023-03-13T23:25:46.370Z,100.00
2023-03-13T23:28:13.188Z,100.00
2023-03-13T23:30:39.810Z,100.00
2023-03-13T23:33:06.333Z,100.00
2023-03-13T23:35:35.972Z,100.00
2023-03-13T23:38:02.487Z,100.00
2023-03-13T23:40:29.018Z,100.00
2023-03-13T23:42:55.654Z,100.00
2023-03-13T23:45:22.181Z,100.00
2023-03-13T23:47:48.724Z,100.00
2023-03-13T23:50:16.158Z,100.00
2023-03-13T23:52:43.033Z,100.00
2023-03-13T23:55:10.239Z,100.00
2023-03-13T23:57:39.911Z,100.00
